createdAt,value
2018-04-12T00:00:06.078Z,82.90
2018-04-12T00:01:08.194Z,83.00
2018-04-12T00:02:11.290Z,83.00
2018-04-12T00:03:06.092Z,83.30
2018-04-12T00:04:05.673Z,83.20
2018-04-12T00:05:06.559Z,83.20
2018-04-12T00:06:10.938Z,83.30
2018-04-12T00:07:06.361Z,83.60
2018-04-12T00:08:06.290Z,83.60
2018-04-12T00:09:06.129Z,83.50
2018-04-12T00:10:08.170Z,83.80
2018-04-12T00:11:08.173Z,83.60
2018-04-12T00:12:08.038Z,83.50
2018-04-12T00:13:07.190Z,83.50
2018-04-12T00:14:11.491Z,83.40
2018-04-12T00:15:05.893Z,83.30
2018-04-12T00:16:05.491Z,83.40
2018-04-12T00:17:06.115Z,83.40
2018-04-12T00:18:05.788Z,83.40
2018-04-12T00:19:06.502Z,83.50
2018-04-12T00:20:08.991Z,83.40
2018-04-12T00:21:05.972Z,83.40
2018-04-12T00:22:05.602Z,83.40
2018-04-12T00:23:08.767Z,83.40
2018-04-12T00:24:09.901Z,83.60
2018-04-12T00:25:08.431Z,83.60
2018-04-12T00:26:06.045Z,83.60
2018-04-12T00:27:10.640Z,83.60
2018-04-12T00:28:10.611Z,83.70
2018-04-12T00:29:08.400Z,83.60
2018-04-12T00:30:06.180Z,83.60
2018-04-12T00:31:05.824Z,83.60
2018-04-12T00:32:13.588Z,83.70
2018-04-12T00:33:06.110Z,83.70
2018-04-12T00:34:05.894Z,83.90
2018-04-12T00:35:05.957Z,84.00
2018-04-12T00:36:08.269Z,84.10
2018-04-12T00:37:08.375Z,84.10
2018-04-12T00:38:05.899Z,84.10
2018-04-12T00:39:05.546Z,84.00
2018-04-12T00:40:08.753Z,84.00
2018-04-12T00:41:08.861Z,84.30
2018-04-12T00:42:06.349Z,84.30
2018-04-12T00:43:08.595Z,84.10
2018-04-12T00:44:06.278Z,84.10
2018-04-12T00:45:05.859Z,84.00
2018-04-12T00:46:10.545Z,84.10
2018-04-12T00:47:12.069Z,84.20
2018-04-12T00:48:05.630Z,84.40
2018-04-12T00:49:11.300Z,84.40
2018-04-12T00:50:08.338Z,84.80
2018-04-12T00:51:05.933Z,84.80
2018-04-12T00:52:08.199Z,84.90
2018-04-12T00:53:08.296Z,84.90
2018-04-12T00:54:05.921Z,84.90
2018-04-12T00:55:05.552Z,85.10
2018-04-12T00:56:06.457Z,85.30
2018-04-12T00:57:06.031Z,85.20
2018-04-12T00:58:05.769Z,85.50
2018-04-12T00:59:06.528Z,85.70
2018-04-12T01:00:06.089Z,85.50
2018-04-12T01:01:08.338Z,85.20
2018-04-12T01:02:08.420Z,85.60
2018-04-12T01:03:08.692Z,85.50
2018-04-12T01:04:08.725Z,85.40
2018-04-12T01:05:11.239Z,85.30
2018-04-12T01:06:08.472Z,85.60
2018-04-12T01:07:06.096Z,85.60
2018-04-12T01:08:06.342Z,85.50
2018-04-12T01:09:05.929Z,85.40
2018-04-12T01:10:08.356Z,85.90
2018-04-12T01:11:05.858Z,85.80
2018-04-12T01:12:05.537Z,85.80
2018-04-12T01:13:08.750Z,85.90
2018-04-12T01:14:06.396Z,85.90
2018-04-12T01:15:06.265Z,85.70
2018-04-12T01:16:05.944Z,85.60
2018-04-12T01:17:05.704Z,85.60
2018-04-12T01:18:06.473Z,85.60
2018-04-12T01:19:05.741Z,85.70
2018-04-12T01:20:06.635Z,85.70
2018-04-12T01:21:06.146Z,85.70
2018-04-12T01:22:05.969Z,85.70
2018-04-12T01:23:05.626Z,85.70
2018-04-12T01:24:06.297Z,85.80
2018-04-12T01:25:10.906Z,85.60
2018-04-12T01:26:09.063Z,85.90
2018-04-12T01:27:08.116Z,85.90
2018-04-12T01:28:08.224Z,86.00
2018-04-12T01:29:06.379Z,86.00
2018-04-12T01:30:08.524Z,85.90
2018-04-12T01:31:08.654Z,85.70
2018-04-12T01:32:06.600Z,85.70
2018-04-12T01:33:06.308Z,85.60
2018-04-12T01:34:05.977Z,85.30
2018-04-12T01:35:06.269Z,85.10
2018-04-12T01:36:05.816Z,85.10
2018-04-12T01:37:05.708Z,85.00
2018-04-12T01:38:11.420Z,85.00
2018-04-12T01:39:05.882Z,84.90
2018-04-12T01:40:09.169Z,85.00
2018-04-12T01:41:05.694Z,85.00
2018-04-12T01:42:08.808Z,84.90
2018-04-12T01:43:06.369Z,84.90
2018-04-12T01:44:05.946Z,84.80
2018-04-12T01:45:08.067Z,84.60
2018-04-12T01:46:08.140Z,84.60
2018-04-12T01:47:06.236Z,84.60
2018-04-12T01:48:08.474Z,84.60
2018-04-12T01:49:11.085Z,84.50
2018-04-12T01:50:08.107Z,84.50
2018-04-12T01:51:08.158Z,84.50
2018-04-12T01:52:08.308Z,84.40
2018-04-12T01:53:08.273Z,84.40
2018-04-12T01:54:05.909Z,84.40
2018-04-12T01:55:06.456Z,84.40
2018-04-12T01:56:08.599Z,84.40
2018-04-12T01:57:06.088Z,84.40
2018-04-12T01:58:05.603Z,84.40
2018-04-12T01:59:08.706Z,84.40
2018-04-12T02:00:05.582Z,84.50
2018-04-12T02:01:06.386Z,84.50
2018-04-12T02:02:06.122Z,84.60
2018-04-12T02:03:05.897Z,84.60
2018-04-12T02:04:10.650Z,84.60
2018-04-12T02:05:06.144Z,84.70
2018-04-12T02:06:05.810Z,84.70
2018-04-12T02:07:06.398Z,84.60
2018-04-12T02:08:06.129Z,84.70
2018-04-12T02:09:09.022Z,84.70
2018-04-12T02:10:09.003Z,84.70
2018-04-12T02:11:08.689Z,84.80
2018-04-12T02:12:06.137Z,84.70
2018-04-12T02:13:05.827Z,84.80
2018-04-12T02:14:06.561Z,84.70
2018-04-12T02:15:08.688Z,84.40
2018-04-12T02:16:12.109Z,84.40
2018-04-12T02:17:05.680Z,84.30
2018-04-12T02:18:06.584Z,84.40
2018-04-12T02:19:08.303Z,84.60
2018-04-12T02:20:05.792Z,84.60
2018-04-12T02:21:10.135Z,84.60
2018-04-12T02:22:05.630Z,84.60
2018-04-12T02:23:05.565Z,84.60
2018-04-12T02:24:08.035Z,84.60
2018-04-12T02:25:11.463Z,84.60
2018-04-12T02:26:10.977Z,84.80
2018-04-12T02:27:11.623Z,84.70
2018-04-12T02:28:07.488Z,84.70
2018-04-12T02:29:06.074Z,84.80
2018-04-12T02:30:05.697Z,84.60
2018-04-12T02:31:06.365Z,84.80
2018-04-12T02:32:06.093Z,84.80
2018-04-12T02:33:08.278Z,84.80
2018-04-12T02:34:08.984Z,84.80
2018-04-12T02:35:08.172Z,84.60
2018-04-12T02:36:05.932Z,84.80
2018-04-12T02:37:15.536Z,84.80
2018-04-12T02:38:06.065Z,84.90
2018-04-12T02:39:05.863Z,84.80
2018-04-12T02:40:06.681Z,84.90
2018-04-12T02:41:06.255Z,85.00
2018-04-12T02:42:11.402Z,85.10
2018-04-12T02:43:08.424Z,85.20
2018-04-12T02:44:05.850Z,85.20
2018-04-12T02:45:06.614Z,85.10
2018-04-12T02:46:06.022Z,85.00
2018-04-12T02:47:06.215Z,85.00
2018-04-12T02:48:08.656Z,85.00
2018-04-12T02:49:05.416Z,85.00
2018-04-12T02:50:05.733Z,84.80
2018-04-12T02:51:06.870Z,84.70
2018-04-12T02:52:10.659Z,84.60
2018-04-12T02:53:06.111Z,84.60
2018-04-12T02:54:06.174Z,84.70
2018-04-12T02:55:06.089Z,84.70
2018-04-12T02:56:08.200Z,84.80
2018-04-12T02:57:05.748Z,84.80
2018-04-12T02:58:06.564Z,84.80
2018-04-12T02:59:08.770Z,84.90
2018-04-12T03:00:06.480Z,84.90
2018-04-12T03:01:06.342Z,85.00
2018-04-12T03:02:06.321Z,85.00
2018-04-12T03:03:08.006Z,85.00
2018-04-12T03:04:08.030Z,85.00
2018-04-12T03:05:08.074Z,85.10
2018-04-12T03:06:05.707Z,85.10
2018-04-12T03:07:06.327Z,85.20
2018-04-12T03:08:08.508Z,85.20
2018-04-12T03:09:06.080Z,85.20
2018-04-12T03:10:05.728Z,85.10
2018-04-12T03:11:05.811Z,85.10
2018-04-12T03:12:06.583Z,85.10
2018-04-12T03:13:06.167Z,85.00
2018-04-12T03:14:06.232Z,85.10
2018-04-12T03:15:06.054Z,85.20
2018-04-12T03:16:05.592Z,85.10
2018-04-12T03:17:08.746Z,85.00
2018-04-12T03:18:06.701Z,85.00
2018-04-12T03:19:08.497Z,85.00
2018-04-12T03:20:08.147Z,85.00
2018-04-12T03:21:08.181Z,85.10
2018-04-12T03:22:06.083Z,85.10
2018-04-12T03:23:06.224Z,85.00
2018-04-12T03:24:05.821Z,84.90
2018-04-12T03:25:05.592Z,84.90
2018-04-12T03:26:09.824Z,84.80
2018-04-12T03:27:06.569Z,84.80
2018-04-12T03:28:13.068Z,85.00
2018-04-12T03:29:10.450Z,85.00
2018-04-12T03:30:08.505Z,85.00
2018-04-12T03:31:06.391Z,84.90
2018-04-12T03:32:05.859Z,84.90
2018-04-12T03:33:10.624Z,85.00
2018-04-12T03:34:06.156Z,84.90
2018-04-12T03:35:05.961Z,85.00
2018-04-12T03:36:05.551Z,85.00
2018-04-12T03:37:07.232Z,85.00
2018-04-12T03:38:06.400Z,84.90
2018-04-12T03:39:05.972Z,84.90
2018-04-12T03:40:07.243Z,84.80
2018-04-12T03:41:05.689Z,84.80
2018-04-12T03:42:11.329Z,84.90
2018-04-12T03:43:08.463Z,85.00
2018-04-12T03:44:06.072Z,85.00
2018-04-12T03:45:10.729Z,85.00
2018-04-12T03:46:06.186Z,85.10
2018-04-12T03:47:08.330Z,85.20
2018-04-12T03:48:06.203Z,85.20
2018-04-12T03:49:06.301Z,85.20
2018-04-12T03:50:11.200Z,85.30
2018-04-12T03:51:05.762Z,85.20
2018-04-12T03:52:08.979Z,85.20
2018-04-12T03:53:06.710Z,85.30
2018-04-12T03:54:06.292Z,85.20
2018-04-12T03:55:05.981Z,85.10
2018-04-12T03:56:08.061Z,85.30
2018-04-12T03:57:10.563Z,85.20
2018-04-12T03:58:06.175Z,85.20
2018-04-12T03:59:05.831Z,85.40
2018-04-12T04:00:06.336Z,85.40
2018-04-12T04:01:06.352Z,85.40
2018-04-12T04:02:10.949Z,85.40
2018-04-12T04:03:06.326Z,85.40
2018-04-12T04:04:06.356Z,85.50
2018-04-12T04:05:08.607Z,85.60
2018-04-12T04:06:06.352Z,85.60
2018-04-12T04:07:08.589Z,85.80
2018-04-12T04:08:06.278Z,85.80
2018-04-12T04:09:08.314Z,85.90
2018-04-12T04:10:05.935Z,85.90
2018-04-12T04:11:05.710Z,86.00
2018-04-12T04:12:05.877Z,86.30
2018-04-12T04:13:08.979Z,86.50
2018-04-12T04:14:06.809Z,86.50
2018-04-12T04:15:06.395Z,86.60
2018-04-12T04:16:11.213Z,86.50
2018-04-12T04:17:08.456Z,86.60
2018-04-12T04:18:06.141Z,86.60
2018-04-12T04:19:13.638Z,86.50
2018-04-12T04:20:08.735Z,86.70
2018-04-12T04:21:11.218Z,86.70
2018-04-12T04:22:08.273Z,86.80
2018-04-12T04:23:06.170Z,86.80
2018-04-12T04:24:05.774Z,86.90
2018-04-12T04:25:15.190Z,87.00
2018-04-12T04:26:05.760Z,87.00
2018-04-12T04:27:08.850Z,87.00
2018-04-12T04:28:06.297Z,87.00
2018-04-12T04:29:08.591Z,87.10
2018-04-12T04:30:06.276Z,87.10
2018-04-12T04:31:05.746Z,87.10
2018-04-12T04:32:06.862Z,87.10
2018-04-12T04:33:06.466Z,87.10
2018-04-12T04:34:12.034Z,87.10
2018-04-12T04:35:08.083Z,87.40
2018-04-12T04:36:10.727Z,87.50
2018-04-12T04:37:06.869Z,87.50
2018-04-12T04:38:08.108Z,87.40
2018-04-12T04:39:08.284Z,87.40
2018-04-12T04:40:05.972Z,87.40
2018-04-12T04:41:08.270Z,87.50
2018-04-12T04:42:06.467Z,87.50
2018-04-12T04:43:06.074Z,87.90
2018-04-12T04:44:06.451Z,88.00
2018-04-12T04:45:06.680Z,87.90
2018-04-12T04:46:06.378Z,88.00
2018-04-12T04:47:06.088Z,87.90
2018-04-12T04:48:06.161Z,88.00
2018-04-12T04:49:08.257Z,87.90
2018-04-12T04:50:10.905Z,87.90
2018-04-12T04:51:06.367Z,87.90
2018-04-12T04:52:08.609Z,87.90
2018-04-12T04:53:06.063Z,87.90
2018-04-12T04:54:05.673Z,88.00
2018-04-12T04:55:06.342Z,87.90
2018-04-12T04:56:10.975Z,87.90
2018-04-12T04:57:08.886Z,87.90
2018-04-12T04:58:06.444Z,87.80
2018-04-12T04:59:08.509Z,87.90
2018-04-12T05:00:06.006Z,87.80
2018-04-12T05:01:08.645Z,87.90
2018-04-12T05:02:06.486Z,87.90
2018-04-12T05:03:11.137Z,87.70
2018-04-12T05:04:08.391Z,87.70
2018-04-12T05:05:06.469Z,87.70
2018-04-12T05:06:08.579Z,87.70
2018-04-12T05:07:08.529Z,87.80
2018-04-12T05:08:06.055Z,87.80
2018-04-12T05:09:05.645Z,87.70
2018-04-12T05:10:06.625Z,87.60
2018-04-12T05:11:08.867Z,87.50
2018-04-12T05:12:06.384Z,87.60
2018-04-12T05:13:06.777Z,87.60
2018-04-12T05:14:09.014Z,87.50
2018-04-12T05:15:10.540Z,87.50
2018-04-12T05:16:05.479Z,87.70
2018-04-12T05:17:06.190Z,87.70
2018-04-12T05:18:08.504Z,87.70
2018-04-12T05:19:06.105Z,87.70
2018-04-12T05:20:08.225Z,87.60
2018-04-12T05:21:10.794Z,87.60
2018-04-12T05:22:08.796Z,87.60
2018-04-12T05:23:06.450Z,87.60
2018-04-12T05:24:07.246Z,87.70
2018-04-12T05:25:05.780Z,87.60
2018-04-12T05:26:06.462Z,87.60
2018-04-12T05:27:06.109Z,87.50
2018-04-12T05:28:05.955Z,87.50
2018-04-12T05:29:05.523Z,87.40
2018-04-12T05:30:08.933Z,87.50
2018-04-12T05:31:09.054Z,87.50
2018-04-12T05:32:05.903Z,87.50
2018-04-12T05:33:08.761Z,87.60
2018-04-12T05:34:06.243Z,87.60
2018-04-12T05:35:12.031Z,87.60
2018-04-12T05:36:12.046Z,87.70
2018-04-12T05:37:05.611Z,87.70
2018-04-12T05:38:05.692Z,87.60
2018-04-12T05:39:09.008Z,87.60
2018-04-12T05:40:07.980Z,87.60
2018-04-12T05:41:05.427Z,87.60
2018-04-12T05:42:05.604Z,87.60
2018-04-12T05:43:06.443Z,87.50
2018-04-12T05:44:06.369Z,87.50
2018-04-12T05:45:05.976Z,87.50
2018-04-12T05:46:05.629Z,87.30
2018-04-12T05:47:06.243Z,87.20
2018-04-12T05:48:08.412Z,87.00
2018-04-12T05:49:08.488Z,86.80
2018-04-12T05:50:05.689Z,86.80
2018-04-12T05:51:08.833Z,86.70
2018-04-12T05:52:11.101Z,86.60
2018-04-12T05:53:05.621Z,86.50
2018-04-12T05:54:06.391Z,86.50
2018-04-12T05:55:06.422Z,86.50
2018-04-12T05:56:06.348Z,86.40
2018-04-12T05:57:06.107Z,86.50
2018-04-12T05:58:08.758Z,86.50
2018-04-12T05:59:08.785Z,86.50
2018-04-12T06:00:06.273Z,86.50
2018-04-12T06:01:08.649Z,86.30
2018-04-12T06:02:08.664Z,86.20
2018-04-12T06:03:08.529Z,86.10
2018-04-12T06:04:05.896Z,86.10
2018-04-12T06:05:05.862Z,86.10
2018-04-12T06:06:10.081Z,85.80
2018-04-12T06:07:09.167Z,85.80
2018-04-12T06:08:06.091Z,85.80
2018-04-12T06:09:05.831Z,85.70
2018-04-12T06:10:05.728Z,85.70
2018-04-12T06:11:06.323Z,85.70
2018-04-12T06:12:06.048Z,85.80
2018-04-12T06:13:06.124Z,85.90
2018-04-12T06:14:06.929Z,86.00
2018-04-12T06:15:06.430Z,86.00
2018-04-12T06:16:11.081Z,86.00
2018-04-12T06:17:08.154Z,86.00
2018-04-12T06:18:10.737Z,86.00
2018-04-12T06:19:08.852Z,86.20
2018-04-12T06:20:06.272Z,86.10
2018-04-12T06:21:08.444Z,86.30
2018-04-12T06:22:06.305Z,86.30
2018-04-12T06:23:08.437Z,86.20
2018-04-12T06:24:05.982Z,86.20
2018-04-12T06:25:08.539Z,86.30
2018-04-12T06:26:08.591Z,86.20
2018-04-12T06:27:05.939Z,86.20
2018-04-12T06:28:08.138Z,86.60
2018-04-12T06:29:08.100Z,87.10
2018-04-12T06:30:10.561Z,87.10
2018-04-12T06:31:06.047Z,87.10
2018-04-12T06:32:05.968Z,86.90
2018-04-12T06:33:06.085Z,86.50
2018-04-12T06:34:08.190Z,86.00
2018-04-12T06:35:06.444Z,86.00
2018-04-12T06:36:11.482Z,85.80
2018-04-12T06:37:06.219Z,85.60
2018-04-12T06:38:05.929Z,85.50
2018-04-12T06:39:08.110Z,85.40
2018-04-12T06:40:05.856Z,85.30
2018-04-12T06:41:06.395Z,85.40
2018-04-12T06:42:11.055Z,85.20
2018-04-12T06:43:10.509Z,85.20
2018-04-12T06:44:06.015Z,85.40
2018-04-12T06:45:06.706Z,85.50
2018-04-12T06:46:07.639Z,85.40
2018-04-12T06:47:06.203Z,85.40
2018-04-12T06:48:05.864Z,85.30
2018-04-12T06:49:05.476Z,85.10
2018-04-12T06:50:06.329Z,85.00
2018-04-12T06:51:08.790Z,85.00
2018-04-12T06:52:06.405Z,85.00
2018-04-12T06:53:11.018Z,85.20
2018-04-12T06:54:05.668Z,85.00
2018-04-12T06:55:11.296Z,85.30
2018-04-12T06:56:05.770Z,85.40
2018-04-12T06:57:09.052Z,85.20
2018-04-12T06:58:05.933Z,85.20
2018-04-12T06:59:05.821Z,85.20
2018-04-12T07:00:05.899Z,84.90
2018-04-12T07:01:05.872Z,84.80
2018-04-12T07:02:06.573Z,84.80
2018-04-12T07:03:06.386Z,84.80
2018-04-12T07:04:08.192Z,85.00
2018-04-12T07:05:10.793Z,85.00
2018-04-12T07:06:06.503Z,85.00
2018-04-12T07:07:06.399Z,85.00
2018-04-12T07:08:06.289Z,84.90
2018-04-12T07:09:06.917Z,84.70
2018-04-12T07:10:11.809Z,84.60
2018-04-12T07:11:11.356Z,84.60
2018-04-12T07:12:06.127Z,84.40
2018-04-12T07:13:13.432Z,84.20
2018-04-12T07:14:08.427Z,84.20
2018-04-12T07:15:06.299Z,84.20
2018-04-12T07:16:05.581Z,84.20
2018-04-12T07:17:06.783Z,84.20
2018-04-12T07:18:06.800Z,84.10
2018-04-12T07:19:13.121Z,84.20
2018-04-12T07:20:06.003Z,84.20
2018-04-12T07:21:06.090Z,84.20
2018-04-12T07:22:05.665Z,84.20
2018-04-12T07:23:08.477Z,84.30
2018-04-12T07:24:06.505Z,84.30
2018-04-12T07:25:06.099Z,84.40
2018-04-12T07:26:07.211Z,84.40
2018-04-12T07:27:08.287Z,84.70
2018-04-12T07:28:05.664Z,84.50
2018-04-12T07:29:08.767Z,84.50
2018-04-12T07:30:08.671Z,84.70
2018-04-12T07:31:08.399Z,84.70
2018-04-12T07:32:08.453Z,84.70
2018-04-12T07:33:06.536Z,84.60
2018-04-12T07:34:06.186Z,84.70
2018-04-12T07:35:06.427Z,84.60
2018-04-12T07:36:05.622Z,84.60
2018-04-12T07:37:08.483Z,84.60
2018-04-12T07:38:09.377Z,84.80
2018-04-12T07:39:06.207Z,84.70
2018-04-12T07:40:08.401Z,85.10
2018-04-12T07:41:08.418Z,84.90
2018-04-12T07:42:06.090Z,85.00
2018-04-12T07:43:10.765Z,85.00
2018-04-12T07:44:08.891Z,85.00
2018-04-12T07:45:06.668Z,85.00
2018-04-12T07:46:06.129Z,84.90
2018-04-12T07:47:08.453Z,85.00
2018-04-12T07:48:10.930Z,85.00
2018-04-12T07:49:06.667Z,85.00
2018-04-12T07:50:06.541Z,85.00
2018-04-12T07:51:08.611Z,85.20
2018-04-12T07:52:06.106Z,85.20
2018-04-12T07:53:09.383Z,85.90
2018-04-12T07:54:06.005Z,85.90
2018-04-12T07:55:06.140Z,85.90
2018-04-12T07:56:06.613Z,86.10
2018-04-12T07:57:06.368Z,86.30
2018-04-12T07:58:06.460Z,86.60
2018-04-12T07:59:08.656Z,86.70
2018-04-12T08:00:06.317Z,86.70
2018-04-12T08:01:06.038Z,86.30
2018-04-12T08:02:10.937Z,86.00
2018-04-12T08:03:06.282Z,86.00
2018-04-12T08:04:08.901Z,85.60
2018-04-12T08:05:06.877Z,85.60
2018-04-12T08:06:16.801Z,85.10
2018-04-12T08:07:06.297Z,85.10
2018-04-12T08:08:06.007Z,85.10
2018-04-12T08:09:08.368Z,84.40
2018-04-12T08:10:06.217Z,84.30
2018-04-12T08:11:08.555Z,84.30
2018-04-12T08:12:11.167Z,84.00
2018-04-12T08:13:08.232Z,83.70
2018-04-12T08:14:08.267Z,83.30
2018-04-12T08:15:10.773Z,82.80
2018-04-12T08:16:06.300Z,82.80
2018-04-12T08:17:08.664Z,81.80
2018-04-12T08:18:06.527Z,81.80
2018-04-12T08:19:06.649Z,81.60
2018-04-12T08:20:06.443Z,80.50
2018-04-12T08:21:05.710Z,80.50
2018-04-12T08:22:06.307Z,80.50
2018-04-12T08:23:08.089Z,80.00
2018-04-12T08:24:10.614Z,79.70
2018-04-12T08:25:08.576Z,79.30
2018-04-12T08:26:06.242Z,79.20
2018-04-12T08:27:08.754Z,77.70
2018-04-12T08:28:11.239Z,77.70
2018-04-12T08:29:05.763Z,77.70
2018-04-12T08:30:06.652Z,77.90
2018-04-12T08:31:06.472Z,77.60
2018-04-12T08:32:08.680Z,75.90
2018-04-12T08:33:09.116Z,75.90
2018-04-12T08:34:10.663Z,75.60
2018-04-12T08:35:06.174Z,75.70
2018-04-12T08:36:05.837Z,75.40
2018-04-12T08:37:05.633Z,74.90
2018-04-12T08:38:06.433Z,74.50
2018-04-12T08:39:06.128Z,74.40
2018-04-12T08:40:06.182Z,74.20
2018-04-12T08:41:06.014Z,74.80
2018-04-12T08:42:05.688Z,74.90
2018-04-12T08:43:11.325Z,75.20
2018-04-12T08:44:06.471Z,74.90
2018-04-12T08:45:06.186Z,74.00
2018-04-12T08:46:08.588Z,74.00
2018-04-12T08:47:06.351Z,74.00
2018-04-12T08:48:11.196Z,74.80
2018-04-12T08:49:05.901Z,74.80
2018-04-12T08:50:08.263Z,74.60
2018-04-12T08:51:08.238Z,73.50
2018-04-12T08:52:06.688Z,73.50
2018-04-12T08:53:11.150Z,71.50
2018-04-12T08:54:05.779Z,71.50
2018-04-12T08:55:09.067Z,71.60
2018-04-12T08:56:05.604Z,71.60
2018-04-12T08:57:08.869Z,71.10
2018-04-12T08:58:08.156Z,71.10
2018-04-12T08:59:08.303Z,70.70
2018-04-12T09:00:08.238Z,71.00
2018-04-12T09:01:08.899Z,70.60
2018-04-12T09:02:08.918Z,70.10
2018-04-12T09:03:06.567Z,70.00
2018-04-12T09:04:08.758Z,69.50
2018-04-12T09:05:08.413Z,69.30
2018-04-12T09:06:06.077Z,69.30
2018-04-12T09:07:06.157Z,69.20
2018-04-12T09:08:05.635Z,68.70
2018-04-12T09:09:08.794Z,67.80
2018-04-12T09:10:06.437Z,67.80
2018-04-12T09:11:05.877Z,65.20
2018-04-12T09:12:05.673Z,64.80
2018-04-12T09:13:06.332Z,64.80
2018-04-12T09:14:06.440Z,64.30
2018-04-12T09:15:06.145Z,63.80
2018-04-12T09:16:05.850Z,64.30
2018-04-12T09:17:16.697Z,64.50
2018-04-12T09:18:06.482Z,64.80
2018-04-12T09:19:06.309Z,65.50
2018-04-12T09:20:11.033Z,65.20
2018-04-12T09:21:16.288Z,65.20
2018-04-12T09:22:07.162Z,65.00
2018-04-12T09:23:05.746Z,64.60
2018-04-12T09:24:05.860Z,64.30
2018-04-12T09:25:09.241Z,64.10
2018-04-12T09:26:08.504Z,63.50
2018-04-12T09:27:06.230Z,63.50
2018-04-12T09:28:08.398Z,64.80
2018-04-12T09:29:08.345Z,64.80
2018-04-12T09:30:08.271Z,64.40
2018-04-12T09:31:11.068Z,64.30
2018-04-12T09:32:08.731Z,64.60
2018-04-12T09:33:06.288Z,64.60
2018-04-12T09:34:05.993Z,64.50
2018-04-12T09:35:05.621Z,64.20
2018-04-12T09:36:06.726Z,65.00
2018-04-12T09:37:11.387Z,64.40
2018-04-12T09:38:06.344Z,64.70
2018-04-12T09:39:08.440Z,63.50
2018-04-12T09:40:10.940Z,62.90
2018-04-12T09:41:06.428Z,62.90
2018-04-12T09:42:07.678Z,63.00
2018-04-12T09:43:08.820Z,63.40
2018-04-12T09:44:11.293Z,63.60
2018-04-12T09:45:08.418Z,63.50
2018-04-12T09:46:05.976Z,63.50
2018-04-12T09:47:05.544Z,62.60
2018-04-12T09:48:06.297Z,61.30
2018-04-12T09:49:06.216Z,60.70
2018-04-12T09:50:08.523Z,58.60
2018-04-12T09:51:05.911Z,58.60
2018-04-12T09:52:05.662Z,58.80
2018-04-12T09:53:10.081Z,58.90
2018-04-12T09:54:08.104Z,58.50
2018-04-12T09:55:05.788Z,58.50
2018-04-12T09:56:11.584Z,58.30
2018-04-12T09:57:06.201Z,57.80
2018-04-12T09:58:06.621Z,57.50
2018-04-12T09:59:06.246Z,57.10
2018-04-12T10:00:08.668Z,56.60
2018-04-12T10:01:09.210Z,56.80
2018-04-12T10:02:08.363Z,56.60
2018-04-12T10:03:05.777Z,56.70
2018-04-12T10:04:06.122Z,57.30
2018-04-12T10:05:06.039Z,55.40
2018-04-12T10:06:10.764Z,55.20
2018-04-12T10:07:07.029Z,54.70
2018-04-12T10:08:06.159Z,55.20
2018-04-12T10:09:08.581Z,55.30
2018-04-12T10:10:06.367Z,55.40
2018-04-12T10:11:06.008Z,55.70
2018-04-12T10:12:05.762Z,54.90
2018-04-12T10:13:06.393Z,55.30
2018-04-12T10:14:06.064Z,54.80
2018-04-12T10:15:08.364Z,51.70
2018-04-12T10:16:06.016Z,51.60
2018-04-12T10:17:10.790Z,51.40
2018-04-12T10:18:13.745Z,51.30
2018-04-12T10:19:06.265Z,51.40
2018-04-12T10:20:06.377Z,51.10
2018-04-12T10:21:11.094Z,51.10
2018-04-12T10:22:05.825Z,50.20
2018-04-12T10:23:05.829Z,49.60
2018-04-12T10:24:05.738Z,48.80
2018-04-12T10:25:06.316Z,49.30
2018-04-12T10:26:08.522Z,49.30
2018-04-12T10:27:06.169Z,49.30
2018-04-12T10:28:08.501Z,49.00
2018-04-12T10:29:05.723Z,49.00
2018-04-12T10:30:06.582Z,49.30
2018-04-12T10:31:11.366Z,49.50
2018-04-12T10:32:10.711Z,49.50
2018-04-12T10:33:08.776Z,48.80
2018-04-12T10:34:16.409Z,48.70
2018-04-12T10:35:16.682Z,49.00
2018-04-12T10:36:06.280Z,48.90
2018-04-12T10:37:05.909Z,48.50
2018-04-12T10:38:06.234Z,48.60
2018-04-12T10:39:06.117Z,47.10
2018-04-12T10:40:06.112Z,47.10
2018-04-12T10:41:05.747Z,47.80
2018-04-12T10:42:06.524Z,47.70
2018-04-12T10:43:06.123Z,47.40
2018-04-12T10:44:06.600Z,47.20
2018-04-12T10:45:06.433Z,48.00
2018-04-12T10:46:06.354Z,48.20
2018-04-12T10:47:06.440Z,48.20
2018-04-12T10:48:06.352Z,48.30
2018-04-12T10:49:05.751Z,47.40
2018-04-12T10:50:05.928Z,46.90
2018-04-12T10:51:08.376Z,46.10
2018-04-12T10:52:10.956Z,46.10
2018-04-12T10:53:09.037Z,45.90
2018-04-12T10:54:08.148Z,45.20
2018-04-12T10:55:08.287Z,43.60
2018-04-12T10:56:08.458Z,42.50
2018-04-12T10:57:06.059Z,42.60
2018-04-12T10:58:08.301Z,42.00
2018-04-12T10:59:06.061Z,42.00
2018-04-12T11:00:08.526Z,42.30
2018-04-12T11:01:05.796Z,42.30
2018-04-12T11:02:06.219Z,43.10
2018-04-12T11:03:05.765Z,42.90
2018-04-12T11:04:06.507Z,42.50
2018-04-12T11:05:09.106Z,42.00
2018-04-12T11:06:08.281Z,40.70
2018-04-12T11:07:05.961Z,40.40
2018-04-12T11:08:08.121Z,39.40
2018-04-12T11:09:05.652Z,39.30
2018-04-12T11:10:08.268Z,39.80
2018-04-12T11:11:05.905Z,39.70
2018-04-12T11:12:05.779Z,39.90
2018-04-12T11:13:08.829Z,40.30
2018-04-12T11:14:11.261Z,40.30
2018-04-12T11:15:05.604Z,39.90
2018-04-12T11:16:08.234Z,41.60
2018-04-12T11:17:06.671Z,41.60
2018-04-12T11:18:05.736Z,41.50
2018-04-12T11:19:06.788Z,41.10
2018-04-12T11:20:06.357Z,40.70
2018-04-12T11:21:06.442Z,40.50
2018-04-12T11:22:08.021Z,41.60
2018-04-12T11:23:09.474Z,40.80
2018-04-12T11:24:09.572Z,40.60
2018-04-12T11:25:06.198Z,40.50
2018-04-12T11:26:09.441Z,39.60
2018-04-12T11:27:08.773Z,40.10
2018-04-12T11:28:12.619Z,40.10
2018-04-12T11:29:08.754Z,39.20
2018-04-12T11:30:05.568Z,39.20
2018-04-12T11:31:06.488Z,39.40
2018-04-12T11:32:13.704Z,39.20
2018-04-12T11:33:06.296Z,39.20
2018-04-12T11:34:06.105Z,39.40
2018-04-12T11:35:06.194Z,39.90
2018-04-12T11:36:09.044Z,40.50
2018-04-12T11:37:10.618Z,39.90
2018-04-12T11:38:06.536Z,39.90
2018-04-12T11:39:06.279Z,39.30
2018-04-12T11:40:05.909Z,39.50
2018-04-12T11:41:05.512Z,39.50
2018-04-12T11:42:06.650Z,39.40
2018-04-12T11:43:06.411Z,39.80
2018-04-12T11:44:06.063Z,39.90
2018-04-12T11:45:08.259Z,39.90
2018-04-12T11:46:05.945Z,39.90
2018-04-12T11:47:05.578Z,40.00
2018-04-12T11:48:08.800Z,40.40
2018-04-12T11:49:06.564Z,40.40
2018-04-12T11:50:08.732Z,41.10
2018-04-12T11:51:06.201Z,41.10
2018-04-12T11:52:05.788Z,41.10
2018-04-12T11:53:06.480Z,41.50
2018-04-12T11:54:06.308Z,41.40
2018-04-12T11:55:06.027Z,40.40
2018-04-12T11:56:11.733Z,40.80
2018-04-12T11:57:06.567Z,40.30
2018-04-12T11:58:06.296Z,40.60
2018-04-12T11:59:13.844Z,39.20
2018-04-12T12:00:09.027Z,38.20
2018-04-12T12:01:10.763Z,37.50
2018-04-12T12:02:07.443Z,37.40
2018-04-12T12:03:05.971Z,37.80
2018-04-12T12:04:05.921Z,37.60
2018-04-12T12:05:05.527Z,37.90
2018-04-12T12:06:06.220Z,37.60
2018-04-12T12:07:06.006Z,37.00
2018-04-12T12:08:05.634Z,36.10
2018-04-12T12:09:09.253Z,35.00
2018-04-12T12:10:05.955Z,35.00
2018-04-12T12:11:08.179Z,35.20
2018-04-12T12:12:08.348Z,35.40
2018-04-12T12:13:08.915Z,35.90
2018-04-12T12:14:06.455Z,36.10
2018-04-12T12:15:06.249Z,35.70
2018-04-12T12:16:08.660Z,36.00
2018-04-12T12:17:08.934Z,36.20
2018-04-12T12:18:06.615Z,36.20
2018-04-12T12:19:11.130Z,36.80
2018-04-12T12:20:10.623Z,37.20
2018-04-12T12:21:06.322Z,37.30
2018-04-12T12:22:08.486Z,36.00
2018-04-12T12:23:06.112Z,36.10
2018-04-12T12:24:10.874Z,36.70
2018-04-12T12:25:09.002Z,37.20
2018-04-12T12:26:08.072Z,36.80
2018-04-12T12:27:05.695Z,36.70
2018-04-12T12:28:08.974Z,35.90
2018-04-12T12:29:10.668Z,35.90
2018-04-12T12:30:06.258Z,36.30
2018-04-12T12:31:08.385Z,36.70
2018-04-12T12:32:05.911Z,36.70
2018-04-12T12:33:10.724Z,37.50
2018-04-12T12:34:08.662Z,37.10
2018-04-12T12:35:05.769Z,37.20
2018-04-12T12:36:08.930Z,37.50
2018-04-12T12:37:06.724Z,37.50
2018-04-12T12:38:06.460Z,37.80
2018-04-12T12:39:06.179Z,37.50
2018-04-12T12:40:06.036Z,37.00
2018-04-12T12:41:05.764Z,36.60
2018-04-12T12:42:08.994Z,36.20
2018-04-12T12:43:09.021Z,36.40
2018-04-12T12:44:06.525Z,36.40
2018-04-12T12:45:08.800Z,36.00
2018-04-12T12:46:10.020Z,35.70
2018-04-12T12:47:08.105Z,35.50
2018-04-12T12:48:08.147Z,34.90
2018-04-12T12:49:05.761Z,35.00
2018-04-12T12:50:06.558Z,34.80
2018-04-12T12:51:08.734Z,34.10
2018-04-12T12:52:06.155Z,34.10